Terminal Aerodrome Forecast
Issued by NWS Wilmington, NC

Home | Current Version | Previous Version | Text Only | Print | Product List | Glossary On
Versions: 1 2 3 4 5 6 7 8 9 10 11 12 13 14
000
FTUS42 KILM 012329
TAFLBT
TAF
KLBT 012329Z 0200/0224 VRB04KT P6SM FEW080
     FM020600 00000KT P6SM SKC
      TEMPO 0208/0212 4SM BR
     FM021300 03004KT P6SM SCT060
     FM021700 11005KT P6SM SCT050
     FM022200 11009KT P6SM SCT050=

USA.gov is the U.S. government's official web portal to all federal, state and local government web resources and services.